sensor_id;sensor_type;location;lat;lon;timestamp;temperature;humidity
60965;DHT22;46834;51.100;6.886;2022-07-23T00:01:33;20.40;47.10
60965;DHT22;46834;51.100;6.886;2022-07-23T00:04:00;20.40;47.10
60965;DHT22;46834;51.100;6.886;2022-07-23T00:06:26;20.40;47.30
60965;DHT22;46834;51.100;6.886;2022-07-23T00:08:52;20.40;47.30
60965;DHT22;46834;51.100;6.886;2022-07-23T00:11:18;20.30;47.10
60965;DHT22;46834;51.100;6.886;2022-07-23T00:13:44;20.40;47.30
60965;DHT22;46834;51.100;6.886;2022-07-23T00:16:10;20.30;47.20
60965;DHT22;46834;51.100;6.886;2022-07-23T00:18:36;20.20;47.20
60965;DHT22;46834;51.100;6.886;2022-07-23T00:21:01;20.20;47.20
60965;DHT22;46834;51.100;6.886;2022-07-23T00:23:27;20.20;47.30
60965;DHT22;46834;51.100;6.886;2022-07-23T00:25:54;20.20;47.90
60965;DHT22;46834;51.100;6.886;2022-07-23T00:28:20;20.10;47.40
60965;DHT22;46834;51.100;6.886;2022-07-23T00:30:46;20.20;47.40
60965;DHT22;46834;51.100;6.886;2022-07-23T00:33:12;20.10;47.30
60965;DHT22;46834;51.100;6.886;2022-07-23T00:35:40;20.10;47.40
60965;DHT22;46834;51.100;6.886;2022-07-23T00:38:07;20.10;47.60
60965;DHT22;46834;51.100;6.886;2022-07-23T00:40:35;20.00;47.40
60965;DHT22;46834;51.100;6.886;2022-07-23T00:43:02;20.00;47.50
60965;DHT22;46834;51.100;6.886;2022-07-23T00:45:28;20.00;47.60
60965;DHT22;46834;51.100;6.886;2022-07-23T00:47:54;20.00;47.60
60965;DHT22;46834;51.100;6.886;2022-07-23T00:50:20;20.00;47.70
60965;DHT22;46834;51.100;6.886;2022-07-23T00:52:46;19.90;47.60
60965;DHT22;46834;51.100;6.886;2022-07-23T00:55:13;20.00;47.80
60965;DHT22;46834;51.100;6.886;2022-07-23T00:57:40;19.90;47.80
60965;DHT22;46834;51.100;6.886;2022-07-23T01:00:09;19.90;47.90
60965;DHT22;46834;51.100;6.886;2022-07-23T01:02:37;19.80;48.70
60965;DHT22;46834;51.100;6.886;2022-07-23T01:05:03;19.80;48.20
60965;DHT22;46834;51.100;6.886;2022-07-23T01:07:29;19.80;48.20
60965;DHT22;46834;51.100;6.886;2022-07-23T01:09:56;19.90;48.30
60965;DHT22;46834;51.100;6.886;2022-07-23T01:12:21;19.80;48.10
60965;DHT22;46834;51.100;6.886;2022-07-23T01:15:13;19.70;48.10
60965;DHT22;46834;51.100;6.886;2022-07-23T01:17:39;19.80;48.80
60965;DHT22;46834;51.100;6.886;2022-07-23T01:20:05;19.80;48.30
60965;DHT22;46834;51.100;6.886;2022-07-23T01:22:31;19.80;48.30
60965;DHT22;46834;51.100;6.886;2022-07-23T01:24:56;19.80;48.40
60965;DHT22;46834;51.100;6.886;2022-07-23T01:27:22;19.80;48.50
60965;DHT22;46834;51.100;6.886;2022-07-23T01:29:48;19.70;48.50
60965;DHT22;46834;51.100;6.886;2022-07-23T01:32:13;19.70;48.60
60965;DHT22;46834;51.100;6.886;2022-07-23T01:34:39;19.70;48.50
60965;DHT22;46834;51.100;6.886;2022-07-23T01:37:06;19.70;48.50
60965;DHT22;46834;51.100;6.886;2022-07-23T01:39:31;19.70;48.60
60965;DHT22;46834;51.100;6.886;2022-07-23T01:41:57;19.70;48.60
60965;DHT22;46834;51.100;6.886;2022-07-23T01:44:23;19.70;48.60
60965;DHT22;46834;51.100;6.886;2022-07-23T01:46:48;19.70;48.70
60965;DHT22;46834;51.100;6.886;2022-07-23T01:49:14;19.70;48.80
60965;DHT22;46834;51.100;6.886;2022-07-23T01:51:40;19.60;48.80
60965;DHT22;46834;51.100;6.886;2022-07-23T01:54:31;19.60;48.80
60965;DHT22;46834;51.100;6.886;2022-07-23T01:56:59;19.60;48.80
60965;DHT22;46834;51.100;6.886;2022-07-23T01:59:25;19.60;48.80
60965;DHT22;46834;51.100;6.886;2022-07-23T02:01:51;19.50;48.80
60965;DHT22;46834;51.100;6.886;2022-07-23T02:04:19;19.50;48.80
60965;DHT22;46834;51.100;6.886;2022-07-23T02:06:46;19.40;48.80
60965;DHT22;46834;51.100;6.886;2022-07-23T02:09:12;19.40;49.00
60965;DHT22;46834;51.100;6.886;2022-07-23T02:11:38;19.40;49.00
60965;DHT22;46834;51.100;6.886;2022-07-23T02:14:03;19.30;49.10
60965;DHT22;46834;51.100;6.886;2022-07-23T02:16:29;19.20;49.00
60965;DHT22;46834;51.100;6.886;2022-07-23T02:18:55;19.20;49.20
60965;DHT22;46834;51.100;6.886;2022-07-23T02:21:21;19.20;49.20
60965;DHT22;46834;51.100;6.886;2022-07-23T02:23:46;19.20;49.40
60965;DHT22;46834;51.100;6.886;2022-07-23T02:26:12;19.10;49.30
60965;DHT22;46834;51.100;6.886;2022-07-23T02:28:38;19.10;49.40
60965;DHT22;46834;51.100;6.886;2022-07-23T02:31:04;19.10;49.50
60965;DHT22;46834;51.100;6.886;2022-07-23T02:33:29;19.00;49.50
60965;DHT22;46834;51.100;6.886;2022-07-23T02:35:55;19.00;49.60
60965;DHT22;46834;51.100;6.886;2022-07-23T02:38:21;19.00;49.70
60965;DHT22;46834;51.100;6.886;2022-07-23T02:40:47;18.90;49.70
60965;DHT22;46834;51.100;6.886;2022-07-23T02:43:12;18.90;49.80
60965;DHT22;46834;51.100;6.886;2022-07-23T02:45:38;18.90;49.80
60965;DHT22;46834;51.100;6.886;2022-07-23T02:48:04;18.90;49.80
60965;DHT22;46834;51.100;6.886;2022-07-23T02:50:30;18.80;49.70
60965;DHT22;46834;51.100;6.886;2022-07-23T02:52:55;18.80;49.90
60965;DHT22;46834;51.100;6.886;2022-07-23T02:55:21;18.80;49.90
60965;DHT22;46834;51.100;6.886;2022-07-23T02:57:47;18.80;50.00
60965;DHT22;46834;51.100;6.886;2022-07-23T03:00:12;18.70;50.00
60965;DHT22;46834;51.100;6.886;2022-07-23T03:02:38;18.70;50.10
60965;DHT22;46834;51.100;6.886;2022-07-23T03:05:06;18.80;50.30
60965;DHT22;46834;51.100;6.886;2022-07-23T03:07:32;18.70;50.30
60965;DHT22;46834;51.100;6.886;2022-07-23T03:09:58;18.70;50.30
60965;DHT22;46834;51.100;6.886;2022-07-23T03:12:23;18.60;50.30
60965;DHT22;46834;51.100;6.886;2022-07-23T03:14:49;18.60;50.40
60965;DHT22;46834;51.100;6.886;2022-07-23T03:17:15;18.70;50.50
60965;DHT22;46834;51.100;6.886;2022-07-23T03:19:41;18.60;50.50
60965;DHT22;46834;51.100;6.886;2022-07-23T03:22:06;18.60;50.50
60965;DHT22;46834;51.100;6.886;2022-07-23T03:24:32;18.60;50.60
60965;DHT22;46834;51.100;6.886;2022-07-23T03:27:17;18.60;50.70
60965;DHT22;46834;51.100;6.886;2022-07-23T03:29:42;18.50;50.60
60965;DHT22;46834;51.100;6.886;2022-07-23T03:32:08;18.50;50.60
60965;DHT22;46834;51.100;6.886;2022-07-23T03:34:34;18.50;50.70
60965;DHT22;46834;51.100;6.886;2022-07-23T03:36:59;18.50;50.70
60965;DHT22;46834;51.100;6.886;2022-07-23T03:39:25;18.50;50.80
60965;DHT22;46834;51.100;6.886;2022-07-23T03:41:51;18.50;50.80
60965;DHT22;46834;51.100;6.886;2022-07-23T03:44:16;18.50;50.90
60965;DHT22;46834;51.100;6.886;2022-07-23T03:46:42;18.40;50.90
60965;DHT22;46834;51.100;6.886;2022-07-23T03:49:08;18.40;50.90
60965;DHT22;46834;51.100;6.886;2022-07-23T03:51:33;18.40;51.00
60965;DHT22;46834;51.100;6.886;2022-07-23T03:53:59;18.40;51.00
60965;DHT22;46834;51.100;6.886;2022-07-23T03:56:25;18.40;51.10
60965;DHT22;46834;51.100;6.886;2022-07-23T03:58:51;18.40;51.20
60965;DHT22;46834;51.100;6.886;2022-07-23T04:01:17;18.40;51.20
60965;DHT22;46834;51.100;6.886;2022-07-23T04:03:43;18.30;51.20
60965;DHT22;46834;51.100;6.886;2022-07-23T04:06:08;18.30;51.20
60965;DHT22;46834;51.100;6.886;2022-07-23T04:08:34;18.30;51.30
60965;DHT22;46834;51.100;6.886;2022-07-23T04:11:00;18.30;51.40
60965;DHT22;46834;51.100;6.886;2022-07-23T04:13:25;18.30;51.50
60965;DHT22;46834;51.100;6.886;2022-07-23T04:15:51;18.30;51.50
60965;DHT22;46834;51.100;6.886;2022-07-23T04:18:17;18.30;51.60
60965;DHT22;46834;51.100;6.886;2022-07-23T04:20:44;18.30;51.70
60965;DHT22;46834;51.100;6.886;2022-07-23T04:23:10;18.30;51.70
60965;DHT22;46834;51.100;6.886;2022-07-23T04:25:36;18.30;51.80
60965;DHT22;46834;51.100;6.886;2022-07-23T04:28:02;18.30;51.80
60965;DHT22;46834;51.100;6.886;2022-07-23T04:30:27;18.30;51.90
60965;DHT22;46834;51.100;6.886;2022-07-23T04:32:53;18.30;52.00
60965;DHT22;46834;51.100;6.886;2022-07-23T04:35:19;18.30;52.10
60965;DHT22;46834;51.100;6.886;2022-07-23T04:37:45;18.30;52.10
60965;DHT22;46834;51.100;6.886;2022-07-23T04:40:12;18.30;52.20
60965;DHT22;46834;51.100;6.886;2022-07-23T04:42:38;18.40;52.30
60965;DHT22;46834;51.100;6.886;2022-07-23T04:45:05;18.40;52.40
60965;DHT22;46834;51.100;6.886;2022-07-23T04:47:31;18.50;52.50
60965;DHT22;46834;51.100;6.886;2022-07-23T04:49:57;18.50;52.60
60965;DHT22;46834;51.100;6.886;2022-07-23T04:52:23;18.60;52.70
60965;DHT22;46834;51.100;6.886;2022-07-23T04:54:49;18.60;52.70
60965;DHT22;46834;51.100;6.886;2022-07-23T04:57:16;18.70;52.70
60965;DHT22;46834;51.100;6.886;2022-07-23T04:59:41;18.70;52.60
60965;DHT22;46834;51.100;6.886;2022-07-23T05:02:07;18.80;52.60
60965;DHT22;46834;51.100;6.886;2022-07-23T05:04:33;18.90;52.70
60965;DHT22;46834;51.100;6.886;2022-07-23T05:06:59;18.90;52.60
60965;DHT22;46834;51.100;6.886;2022-07-23T05:09:25;19.00;52.70
60965;DHT22;46834;51.100;6.886;2022-07-23T05:11:51;19.10;52.80
60965;DHT22;46834;51.100;6.886;2022-07-23T05:14:17;19.10;52.70
60965;DHT22;46834;51.100;6.886;2022-07-23T05:16:42;19.20;52.70
60965;DHT22;46834;51.100;6.886;2022-07-23T05:19:08;19.20;52.80
60965;DHT22;46834;51.100;6.886;2022-07-23T05:21:34;19.30;52.80
60965;DHT22;46834;51.100;6.886;2022-07-23T05:24:00;19.40;52.90
60965;DHT22;46834;51.100;6.886;2022-07-23T05:26:25;19.40;52.80
60965;DHT22;46834;51.100;6.886;2022-07-23T05:28:51;19.50;52.80
60965;DHT22;46834;51.100;6.886;2022-07-23T05:31:17;19.50;52.70
60965;DHT22;46834;51.100;6.886;2022-07-23T05:33:44;19.60;52.70
60965;DHT22;46834;51.100;6.886;2022-07-23T05:36:10;19.70;52.70
60965;DHT22;46834;51.100;6.886;2022-07-23T05:38:36;19.70;52.60
60965;DHT22;46834;51.100;6.886;2022-07-23T05:41:02;19.80;52.70
60965;DHT22;46834;51.100;6.886;2022-07-23T05:43:28;19.80;52.60
60965;DHT22;46834;51.100;6.886;2022-07-23T05:45:54;19.80;52.60
60965;DHT22;46834;51.100;6.886;2022-07-23T05:48:20;19.80;52.50
60965;DHT22;46834;51.100;6.886;2022-07-23T05:50:47;20.00;52.60
60965;DHT22;46834;51.100;6.886;2022-07-23T05:53:13;20.00;52.50
60965;DHT22;46834;51.100;6.886;2022-07-23T05:55:38;20.00;52.40
60965;DHT22;46834;51.100;6.886;2022-07-23T05:58:04;20.00;52.40
60965;DHT22;46834;51.100;6.886;2022-07-23T06:00:30;20.00;52.30
60965;DHT22;46834;51.100;6.886;2022-07-23T06:02:56;20.10;52.40
60965;DHT22;46834;51.100;6.886;2022-07-23T06:05:22;20.10;52.40
60965;DHT22;46834;51.100;6.886;2022-07-23T06:07:49;20.10;52.40
60965;DHT22;46834;51.100;6.886;2022-07-23T06:10:15;20.20;52.40
60965;DHT22;46834;51.100;6.886;2022-07-23T06:12:41;20.20;52.40
60965;DHT22;46834;51.100;6.886;2022-07-23T06:15:08;20.20;52.30
60965;DHT22;46834;51.100;6.886;2022-07-23T06:17:34;20.30;52.40
60965;DHT22;46834;51.100;6.886;2022-07-23T06:20:00;20.30;52.40
60965;DHT22;46834;51.100;6.886;2022-07-23T06:22:25;20.40;52.40
60965;DHT22;46834;51.100;6.886;2022-07-23T06:24:51;20.40;52.50
60965;DHT22;46834;51.100;6.886;2022-07-23T06:27:17;20.50;52.50
60965;DHT22;46834;51.100;6.886;2022-07-23T06:29:43;20.60;52.80
60965;DHT22;46834;51.100;6.886;2022-07-23T06:32:09;20.90;53.80
60965;DHT22;46834;51.100;6.886;2022-07-23T06:34:35;21.30;54.80
60965;DHT22;46834;51.100;6.886;2022-07-23T06:37:01;21.80;55.30
60965;DHT22;46834;51.100;6.886;2022-07-23T06:39:27;22.50;55.20
60965;DHT22;46834;51.100;6.886;2022-07-23T06:41:52;23.20;55.20
60965;DHT22;46834;51.100;6.886;2022-07-23T06:44:18;23.90;54.80
60965;DHT22;46834;51.100;6.886;2022-07-23T06:46:44;24.60;54.50
60965;DHT22;46834;51.100;6.886;2022-07-23T06:49:10;25.40;54.10
60965;DHT22;46834;51.100;6.886;2022-07-23T06:51:35;26.10;53.60
60965;DHT22;46834;51.100;6.886;2022-07-23T06:54:02;26.80;52.90
60965;DHT22;46834;51.100;6.886;2022-07-23T06:56:28;27.40;52.10
60965;DHT22;46834;51.100;6.886;2022-07-23T06:58:53;28.00;51.40
60965;DHT22;46834;51.100;6.886;2022-07-23T07:01:19;28.60;50.60
60965;DHT22;46834;51.100;6.886;2022-07-23T07:03:45;29.10;50.00
60965;DHT22;46834;51.100;6.886;2022-07-23T07:06:11;29.70;49.30
60965;DHT22;46834;51.100;6.886;2022-07-23T07:08:37;30.10;48.40
60965;DHT22;46834;51.100;6.886;2022-07-23T07:11:03;30.60;47.70
60965;DHT22;46834;51.100;6.886;2022-07-23T07:13:29;31.00;47.20
60965;DHT22;46834;51.100;6.886;2022-07-23T07:15:55;31.40;46.50
60965;DHT22;46834;51.100;6.886;2022-07-23T07:18:20;31.80;46.00
60965;DHT22;46834;51.100;6.886;2022-07-23T07:20:46;32.20;45.60
60965;DHT22;46834;51.100;6.886;2022-07-23T07:23:12;32.60;45.40
60965;DHT22;46834;51.100;6.886;2022-07-23T07:25:38;33.00;44.90
60965;DHT22;46834;51.100;6.886;2022-07-23T07:28:04;33.60;44.60
60965;DHT22;46834;51.100;6.886;2022-07-23T07:30:30;34.00;44.00
60965;DHT22;46834;51.100;6.886;2022-07-23T07:32:55;34.40;43.50
60965;DHT22;46834;51.100;6.886;2022-07-23T07:35:21;34.90;42.80
60965;DHT22;46834;51.100;6.886;2022-07-23T07:37:47;35.30;42.10
60965;DHT22;46834;51.100;6.886;2022-07-23T07:40:12;35.70;41.40
60965;DHT22;46834;51.100;6.886;2022-07-23T07:42:46;36.00;40.70
60965;DHT22;46834;51.100;6.886;2022-07-23T07:45:12;36.30;39.20
60965;DHT22;46834;51.100;6.886;2022-07-23T07:47:38;36.50;39.80
60965;DHT22;46834;51.100;6.886;2022-07-23T07:50:04;36.80;39.00
60965;DHT22;46834;51.100;6.886;2022-07-23T07:52:30;36.90;38.40
60965;DHT22;46834;51.100;6.886;2022-07-23T07:54:56;37.00;37.90
60965;DHT22;46834;51.100;6.886;2022-07-23T07:57:22;37.10;37.20
60965;DHT22;46834;51.100;6.886;2022-07-23T07:59:47;36.90;36.40
60965;DHT22;46834;51.100;6.886;2022-07-23T08:02:13;36.70;35.60
60965;DHT22;46834;51.100;6.886;2022-07-23T08:04:38;36.20;35.00
60965;DHT22;46834;51.100;6.886;2022-07-23T08:07:04;35.70;34.90
60965;DHT22;46834;51.100;6.886;2022-07-23T08:09:30;35.10;34.60
60965;DHT22;46834;51.100;6.886;2022-07-23T08:11:55;34.50;34.60
60965;DHT22;46834;51.100;6.886;2022-07-23T08:14:21;33.80;34.60
60965;DHT22;46834;51.100;6.886;2022-07-23T08:16:47;33.00;34.80
60965;DHT22;46834;51.100;6.886;2022-07-23T08:19:13;32.40;35.00
60965;DHT22;46834;51.100;6.886;2022-07-23T08:21:38;31.90;35.20
60965;DHT22;46834;51.100;6.886;2022-07-23T08:24:04;31.30;35.50
60965;DHT22;46834;51.100;6.886;2022-07-23T08:26:30;30.80;35.60
60965;DHT22;46834;51.100;6.886;2022-07-23T08:28:56;30.30;36.00
60965;DHT22;46834;51.100;6.886;2022-07-23T08:31:22;29.90;36.40
60965;DHT22;46834;51.100;6.886;2022-07-23T08:33:47;29.50;36.60
60965;DHT22;46834;51.100;6.886;2022-07-23T08:36:13;29.10;36.80
60965;DHT22;46834;51.100;6.886;2022-07-23T08:38:39;28.80;36.90
60965;DHT22;46834;51.100;6.886;2022-07-23T08:41:07;28.50;37.10
60965;DHT22;46834;51.100;6.886;2022-07-23T08:43:33;28.20;37.30
60965;DHT22;46834;51.100;6.886;2022-07-23T08:46:01;28.00;37.60
60965;DHT22;46834;51.100;6.886;2022-07-23T08:48:33;27.80;37.70
60965;DHT22;46834;51.100;6.886;2022-07-23T08:51:02;27.60;37.90
60965;DHT22;46834;51.100;6.886;2022-07-23T08:53:30;27.40;38.00
60965;DHT22;46834;51.100;6.886;2022-07-23T08:56:00;27.30;38.10
60965;DHT22;46834;51.100;6.886;2022-07-23T08:58:30;27.20;38.30
60965;DHT22;46834;51.100;6.886;2022-07-23T09:00:57;27.10;38.50
60965;DHT22;46834;51.100;6.886;2022-07-23T09:03:26;27.00;38.50
60965;DHT22;46834;51.100;6.886;2022-07-23T09:05:59;26.90;38.40
60965;DHT22;46834;51.100;6.886;2022-07-23T09:08:40;26.80;38.40
60965;DHT22;46834;51.100;6.886;2022-07-23T09:11:09;26.70;38.40
60965;DHT22;46834;51.100;6.886;2022-07-23T09:13:52;26.60;38.50
60965;DHT22;46834;51.100;6.886;2022-07-23T09:16:25;26.60;38.70
60965;DHT22;46834;51.100;6.886;2022-07-23T09:18:57;26.50;38.70
60965;DHT22;46834;51.100;6.886;2022-07-23T09:21:33;26.50;38.80
60965;DHT22;46834;51.100;6.886;2022-07-23T09:24:11;26.40;38.80
60965;DHT22;46834;51.100;6.886;2022-07-23T09:26:43;26.40;39.00
60965;DHT22;46834;51.100;6.886;2022-07-23T09:37:10;26.40;39.00
60965;DHT22;46834;51.100;6.886;2022-07-23T09:39:36;26.40;39.00
60965;DHT22;46834;51.100;6.886;2022-07-23T09:44:45;26.30;39.00
60965;DHT22;46834;51.100;6.886;2022-07-23T09:47:20;26.20;39.20
60965;DHT22;46834;51.100;6.886;2022-07-23T09:52:28;26.20;38.80
60965;DHT22;46834;51.100;6.886;2022-07-23T09:55:00;26.20;38.80
60965;DHT22;46834;51.100;6.886;2022-07-23T09:57:28;26.20;38.60
60965;DHT22;46834;51.100;6.886;2022-07-23T09:59:57;26.10;38.90
60965;DHT22;46834;51.100;6.886;2022-07-23T10:02:27;26.10;38.80
60965;DHT22;46834;51.100;6.886;2022-07-23T10:04:56;26.10;39.00
60965;DHT22;46834;51.100;6.886;2022-07-23T10:07:25;26.10;39.10
60965;DHT22;46834;51.100;6.886;2022-07-23T10:09:53;26.10;39.00
60965;DHT22;46834;51.100;6.886;2022-07-23T10:12:20;26.10;39.00
60965;DHT22;46834;51.100;6.886;2022-07-23T10:15:00;26.10;39.00
60965;DHT22;46834;51.100;6.886;2022-07-23T10:17:30;26.10;39.00
60965;DHT22;46834;51.100;6.886;2022-07-23T10:19:56;26.10;39.00
60965;DHT22;46834;51.100;6.886;2022-07-23T10:22:28;26.10;39.10
60965;DHT22;46834;51.100;6.886;2022-07-23T10:27:57;26.10;38.90
60965;DHT22;46834;51.100;6.886;2022-07-23T10:31:00;26.10;38.80
60965;DHT22;46834;51.100;6.886;2022-07-23T10:33:48;26.20;38.80
60965;DHT22;46834;51.100;6.886;2022-07-23T10:36:47;26.20;38.90
60965;DHT22;46834;51.100;6.886;2022-07-23T10:44:41;26.10;38.50
60965;DHT22;46834;51.100;6.886;2022-07-23T10:47:21;26.10;38.60
60965;DHT22;46834;51.100;6.886;2022-07-23T10:50:21;26.10;38.30
60965;DHT22;46834;51.100;6.886;2022-07-23T10:58:02;26.00;38.20
60965;DHT22;46834;51.100;6.886;2022-07-23T11:00:30;26.00;38.30
60965;DHT22;46834;51.100;6.886;2022-07-23T11:03:05;26.00;38.30
60965;DHT22;46834;51.100;6.886;2022-07-23T11:05:54;26.00;38.20
60965;DHT22;46834;51.100;6.886;2022-07-23T11:08:19;26.00;38.30
60965;DHT22;46834;51.100;6.886;2022-07-23T11:10:54;26.00;38.30
60965;DHT22;46834;51.100;6.886;2022-07-23T11:13:45;26.00;38.40
60965;DHT22;46834;51.100;6.886;2022-07-23T11:16:13;26.10;38.10
60965;DHT22;46834;51.100;6.886;2022-07-23T11:37:03;26.30;37.90
60965;DHT22;46834;51.100;6.886;2022-07-23T11:39:31;26.30;37.90
60965;DHT22;46834;51.100;6.886;2022-07-23T11:41:58;26.30;38.00
60965;DHT22;46834;51.100;6.886;2022-07-23T11:46:57;26.30;37.70
60965;DHT22;46834;51.100;6.886;2022-07-23T11:49:27;26.30;37.70
60965;DHT22;46834;51.100;6.886;2022-07-23T11:52:04;26.30;37.70
60965;DHT22;46834;51.100;6.886;2022-07-23T11:54:33;26.30;37.50
60965;DHT22;46834;51.100;6.886;2022-07-23T11:57:01;26.30;37.60
60965;DHT22;46834;51.100;6.886;2022-07-23T11:59:31;26.30;37.60
60965;DHT22;46834;51.100;6.886;2022-07-23T12:01:59;26.40;37.50
60965;DHT22;46834;51.100;6.886;2022-07-23T12:04:44;26.20;37.30
60965;DHT22;46834;51.100;6.886;2022-07-23T12:07:39;26.30;36.80
60965;DHT22;46834;51.100;6.886;2022-07-23T12:10:15;26.30;36.80
60965;DHT22;46834;51.100;6.886;2022-07-23T12:13:12;26.30;37.00
60965;DHT22;46834;51.100;6.886;2022-07-23T12:15:49;26.40;36.90
60965;DHT22;46834;51.100;6.886;2022-07-23T12:18:19;26.40;36.60
60965;DHT22;46834;51.100;6.886;2022-07-23T12:20:52;26.40;36.70
60965;DHT22;46834;51.100;6.886;2022-07-23T12:23:23;26.40;36.70
60965;DHT22;46834;51.100;6.886;2022-07-23T12:25:51;26.40;36.70
60965;DHT22;46834;51.100;6.886;2022-07-23T12:28:20;26.40;36.60
60965;DHT22;46834;51.100;6.886;2022-07-23T12:30:51;26.50;36.60
60965;DHT22;46834;51.100;6.886;2022-07-23T12:33:35;26.50;36.20
60965;DHT22;46834;51.100;6.886;2022-07-23T12:36:08;26.50;36.00
60965;DHT22;46834;51.100;6.886;2022-07-23T12:38:48;26.60;36.10
60965;DHT22;46834;51.100;6.886;2022-07-23T12:41:14;26.60;35.90
60965;DHT22;46834;51.100;6.886;2022-07-23T12:43:43;26.60;36.90
60965;DHT22;46834;51.100;6.886;2022-07-23T12:46:18;26.60;36.20
60965;DHT22;46834;51.100;6.886;2022-07-23T12:51:24;26.70;35.80
60965;DHT22;46834;51.100;6.886;2022-07-23T12:54:04;26.80;35.70
60965;DHT22;46834;51.100;6.886;2022-07-23T12:56:33;26.70;35.60
60965;DHT22;46834;51.100;6.886;2022-07-23T12:59:05;26.70;35.50
60965;DHT22;46834;51.100;6.886;2022-07-23T13:01:53;26.80;35.50
60965;DHT22;46834;51.100;6.886;2022-07-23T13:04:22;26.80;35.40
60965;DHT22;46834;51.100;6.886;2022-07-23T13:06:51;26.80;35.40
60965;DHT22;46834;51.100;6.886;2022-07-23T13:09:19;26.80;35.20
60965;DHT22;46834;51.100;6.886;2022-07-23T13:11:48;26.90;35.20
60965;DHT22;46834;51.100;6.886;2022-07-23T13:14:16;26.90;35.40
60965;DHT22;46834;51.100;6.886;2022-07-23T13:16:43;26.90;35.20
60965;DHT22;46834;51.100;6.886;2022-07-23T13:19:10;26.90;35.20
60965;DHT22;46834;51.100;6.886;2022-07-23T13:21:37;26.90;35.20
60965;DHT22;46834;51.100;6.886;2022-07-23T13:24:03;26.90;35.20
60965;DHT22;46834;51.100;6.886;2022-07-23T13:26:29;26.80;35.10
60965;DHT22;46834;51.100;6.886;2022-07-23T13:28:55;26.80;35.10
60965;DHT22;46834;51.100;6.886;2022-07-23T13:31:21;26.80;35.00
60965;DHT22;46834;51.100;6.886;2022-07-23T13:33:47;26.80;35.00
60965;DHT22;46834;51.100;6.886;2022-07-23T13:36:13;26.80;35.00
60965;DHT22;46834;51.100;6.886;2022-07-23T13:38:38;26.80;35.10
60965;DHT22;46834;51.100;6.886;2022-07-23T13:41:04;26.80;35.20
60965;DHT22;46834;51.100;6.886;2022-07-23T13:43:32;26.80;35.30
60965;DHT22;46834;51.100;6.886;2022-07-23T13:45:58;26.90;35.20
60965;DHT22;46834;51.100;6.886;2022-07-23T13:48:24;26.90;35.30
60965;DHT22;46834;51.100;6.886;2022-07-23T13:50:51;26.90;35.20
60965;DHT22;46834;51.100;6.886;2022-07-23T13:53:19;26.90;35.10
60965;DHT22;46834;51.100;6.886;2022-07-23T13:55:49;26.90;35.00
60965;DHT22;46834;51.100;6.886;2022-07-23T13:58:17;26.90;34.90
60965;DHT22;46834;51.100;6.886;2022-07-23T14:00:46;26.90;34.80
60965;DHT22;46834;51.100;6.886;2022-07-23T14:03:13;26.90;34.80
60965;DHT22;46834;51.100;6.886;2022-07-23T14:05:39;26.90;35.00
60965;DHT22;46834;51.100;6.886;2022-07-23T14:08:07;26.90;34.80
60965;DHT22;46834;51.100;6.886;2022-07-23T14:10:32;26.90;34.80
60965;DHT22;46834;51.100;6.886;2022-07-23T14:12:58;26.90;34.90
60965;DHT22;46834;51.100;6.886;2022-07-23T14:15:27;26.90;34.80
60965;DHT22;46834;51.100;6.886;2022-07-23T14:17:55;26.90;34.70
60965;DHT22;46834;51.100;6.886;2022-07-23T14:20:21;26.90;34.60
60965;DHT22;46834;51.100;6.886;2022-07-23T14:22:47;26.90;34.60
60965;DHT22;46834;51.100;6.886;2022-07-23T14:25:15;27.00;34.70
60965;DHT22;46834;51.100;6.886;2022-07-23T14:27:42;27.00;34.60
60965;DHT22;46834;51.100;6.886;2022-07-23T14:30:10;27.00;34.50
60965;DHT22;46834;51.100;6.886;2022-07-23T14:32:37;27.00;34.40
60965;DHT22;46834;51.100;6.886;2022-07-23T14:35:04;27.00;34.40
60965;DHT22;46834;51.100;6.886;2022-07-23T14:37:31;27.00;34.50
60965;DHT22;46834;51.100;6.886;2022-07-23T14:39:56;27.00;34.60
60965;DHT22;46834;51.100;6.886;2022-07-23T14:42:22;27.00;34.60
60965;DHT22;46834;51.100;6.886;2022-07-23T14:44:48;27.00;34.70
60965;DHT22;46834;51.100;6.886;2022-07-23T14:47:14;27.00;34.40
60965;DHT22;46834;51.100;6.886;2022-07-23T14:49:40;27.00;34.40
60965;DHT22;46834;51.100;6.886;2022-07-23T14:52:06;27.00;34.40
60965;DHT22;46834;51.100;6.886;2022-07-23T14:54:33;27.00;34.50
60965;DHT22;46834;51.100;6.886;2022-07-23T14:56:59;27.00;34.50
60965;DHT22;46834;51.100;6.886;2022-07-23T14:59:26;27.00;34.50
60965;DHT22;46834;51.100;6.886;2022-07-23T15:01:53;27.00;34.30
60965;DHT22;46834;51.100;6.886;2022-07-23T15:04:20;27.00;34.30
60965;DHT22;46834;51.100;6.886;2022-07-23T15:06:46;27.00;34.20
60965;DHT22;46834;51.100;6.886;2022-07-23T15:09:12;27.10;34.10
60965;DHT22;46834;51.100;6.886;2022-07-23T15:11:39;27.10;34.20
60965;DHT22;46834;51.100;6.886;2022-07-23T15:14:06;27.10;34.20
60965;DHT22;46834;51.100;6.886;2022-07-23T15:16:33;27.10;34.10
60965;DHT22;46834;51.100;6.886;2022-07-23T15:19:00;27.10;34.00
60965;DHT22;46834;51.100;6.886;2022-07-23T15:21:27;27.10;34.10
60965;DHT22;46834;51.100;6.886;2022-07-23T15:23:54;27.20;34.10
60965;DHT22;46834;51.100;6.886;2022-07-23T15:26:21;27.20;34.10
60965;DHT22;46834;51.100;6.886;2022-07-23T15:28:48;27.20;34.00
60965;DHT22;46834;51.100;6.886;2022-07-23T15:31:14;27.20;33.80
60965;DHT22;46834;51.100;6.886;2022-07-23T15:33:39;27.20;33.80
60965;DHT22;46834;51.100;6.886;2022-07-23T15:36:05;27.20;33.80
60965;DHT22;46834;51.100;6.886;2022-07-23T15:38:32;27.20;33.60
60965;DHT22;46834;51.100;6.886;2022-07-23T15:40:58;27.20;33.70
60965;DHT22;46834;51.100;6.886;2022-07-23T15:43:24;27.20;33.80
60965;DHT22;46834;51.100;6.886;2022-07-23T15:45:51;27.10;33.80
60965;DHT22;46834;51.100;6.886;2022-07-23T15:48:18;27.20;33.70
60965;DHT22;46834;51.100;6.886;2022-07-23T15:50:46;27.10;33.50
60965;DHT22;46834;51.100;6.886;2022-07-23T15:53:12;27.10;33.50
60965;DHT22;46834;51.100;6.886;2022-07-23T15:55:39;27.10;33.60
60965;DHT22;46834;51.100;6.886;2022-07-23T15:58:05;27.10;33.70
60965;DHT22;46834;51.100;6.886;2022-07-23T16:00:32;27.10;33.60
60965;DHT22;46834;51.100;6.886;2022-07-23T16:02:58;27.10;33.50
60965;DHT22;46834;51.100;6.886;2022-07-23T16:05:24;27.10;33.40
60965;DHT22;46834;51.100;6.886;2022-07-23T16:07:55;27.10;33.50
60965;DHT22;46834;51.100;6.886;2022-07-23T16:10:22;27.10;33.50
60965;DHT22;46834;51.100;6.886;2022-07-23T16:12:48;27.10;33.50
60965;DHT22;46834;51.100;6.886;2022-07-23T16:15:14;27.10;33.50
60965;DHT22;46834;51.100;6.886;2022-07-23T16:17:39;27.20;33.60
60965;DHT22;46834;51.100;6.886;2022-07-23T16:20:06;27.10;33.50
60965;DHT22;46834;51.100;6.886;2022-07-23T16:22:34;27.10;33.60
60965;DHT22;46834;51.100;6.886;2022-07-23T16:25:01;27.20;33.70